Time;durP1;ratioP1;P1;durP2;ratioP2;P2;SDS_P1;SDS_P2;PMS_P1;PMS_P2;Temp;Humidity;BMP_temperature;BMP_pressure;BME280_temperature;BME280_humidity;BME280_pressure;Samples;Min_cycle;Max_cycle;Signal;HPM_P1;HPM_P2
2023/03/16 00:00:34;;;;;;;;;11.50;10.00;;;;;;;;117410;1195;25272;-62
2023/03/16 00:03:19;;;;;;;;;11.67;10.67;;;;;;;;117404;1184;25571;-62
2023/03/16 00:05:49;;;;;;;;;12.00;9.00;;;;;;;;117447;1182;25591;-62
2023/03/16 00:08:20;;;;;;;;;11.00;9.50;;;;;;;;117467;1183;24858;-62
2023/03/16 00:10:52;;;;;;;;;10.00;10.00;;;;;;;;117462;1186;25267;-62
2023/03/16 00:13:23;;;;;;;;;10.00;8.00;;;;;;;;117483;1181;25005;-62
2023/03/16 00:15:56;;;;;;;;;9.50;8.50;;;;;;;;117440;1195;24885;-63
2023/03/16 00:18:27;;;;;;;;;9.50;9.50;;;;;;;;117137;1183;25426;-62
2023/03/16 00:21:04;;;;;;;;;6.00;6.00;;;;;;;;117300;1184;25613;-65
2023/03/16 00:23:34;;;;;;;;;9.33;8.00;;;;;;;;117520;1183;25610;-70
2023/03/16 00:26:06;;;;;;;;;10.33;8.67;;;;;;;;117406;1181;24908;-68
2023/03/16 00:28:35;;;;;;;;;11.00;9.00;;;;;;;;117339;1195;25386;-71
2023/03/16 00:31:05;;;;;;;;;10.00;7.00;;;;;;;;117441;1184;25537;-62
2023/03/16 00:33:34;;;;;;;;;8.00;8.00;;;;;;;;117447;1186;24953;-63
2023/03/16 00:36:06;;;;;;;;;9.67;9.67;;;;;;;;117439;1184;25178;-62
2023/03/16 00:38:38;;;;;;;;;7.00;7.00;;;;;;;;117369;1187;25181;-62
2023/03/16 00:41:08;;;;;;;;;8.50;8.50;;;;;;;;117431;1183;25644;-62
2023/03/16 00:43:43;;;;;;;;;8.50;6.50;;;;;;;;117438;1184;24848;-62
2023/03/16 00:46:14;;;;;;;;;8.50;8.00;;;;;;;;117375;1183;24842;-63
2023/03/16 00:48:46;;;;;;;;;10.00;10.00;;;;;;;;117364;1195;25184;-62
2023/03/16 00:51:16;;;;;;;;;7.50;7.00;;;;;;;;117422;1183;25637;-62
2023/03/16 00:53:45;;;;;;;;;8.00;8.00;;;;;;;;117408;1195;25681;-62
2023/03/16 00:56:14;;;;;;;;;8.50;8.50;;;;;;;;117429;1184;25573;-63
2023/03/16 00:58:42;;;;;;;;;9.50;8.00;;;;;;;;117403;1183;25615;-62
2023/03/16 01:01:13;;;;;;;;;10.00;8.00;;;;;;;;117432;1192;24944;-63
2023/03/16 01:03:42;;;;;;;;;9.00;8.00;;;;;;;;117439;1190;25061;-62
2023/03/16 01:06:14;;;;;;;;;7.00;7.00;;;;;;;;117369;1183;25182;-62
2023/03/16 01:08:43;;;;;;;;;7.50;7.00;;;;;;;;117439;1183;24791;-62
2023/03/16 01:11:16;;;;;;;;;9.00;8.33;;;;;;;;117432;1184;25113;-63
2023/03/16 01:13:46;;;;;;;;;8.00;8.00;;;;;;;;117245;1186;26289;-62
2023/03/16 01:16:17;;;;;;;;;10.33;7.33;;;;;;;;117270;1192;25454;-62
2023/03/16 01:18:46;;;;;;;;;9.00;6.00;;;;;;;;117366;1183;24762;-61
2023/03/16 01:21:15;;;;;;;;;12.50;8.00;;;;;;;;117364;1195;24946;-61
2023/03/16 01:23:44;;;;;;;;;8.00;6.00;;;;;;;;117382;1183;26324;-61
2023/03/16 01:26:14;;;;;;;;;15.00;10.00;;;;;;;;117273;1184;25546;-62
2023/03/16 01:28:43;;;;;;;;;6.00;6.00;;;;;;;;117576;1183;25695;-63
2023/03/16 01:31:15;;;;;;;;;9.00;8.50;;;;;;;;117545;1195;25255;-63
2023/03/16 01:33:44;;;;;;;;;4.67;3.33;;;;;;;;117529;1183;25206;-63
2023/03/16 01:36:15;;;;;;;;;8.00;7.50;;;;;;;;117519;1184;25435;-64
2023/03/16 01:38:44;;;;;;;;;9.00;8.33;;;;;;;;117513;1195;24850;-64
2023/03/16 01:41:13;;;;;;;;;7.67;7.67;;;;;;;;117541;1184;25046;-66
2023/03/16 01:43:42;;;;;;;;;7.00;7.00;;;;;;;;117479;1182;25363;-67
2023/03/16 01:46:18;;;;;;;;;9.00;9.00;;;;;;;;117458;1183;25511;-66
2023/03/16 01:49:06;;;;;;;;;8.00;8.00;;;;;;;;117458;1183;25566;-69
2023/03/16 01:51:55;;;;;;;;;8.00;6.00;;;;;;;;117459;1184;25284;-64
2023/03/16 01:54:36;;;;;;;;;8.00;6.00;;;;;;;;117446;1183;25252;-64
2023/03/16 01:57:19;;;;;;;;;9.00;9.00;;;;;;;;117375;1184;24759;-69
2023/03/16 02:00:17;;;;;;;;;8.50;7.00;;;;;;;;117463;1183;25234;-65
2023/03/16 02:02:50;;;;;;;;;7.00;7.00;;;;;;;;117477;1186;25441;-65
2023/03/16 02:05:23;;;;;;;;;7.50;7.50;;;;;;;;117410;1195;25525;-70
2023/03/16 02:07:57;;;;;;;;;7.33;7.33;;;;;;;;117439;1195;25610;-70
2023/03/16 02:10:27;;;;;;;;;11.00;9.50;;;;;;;;117339;1183;25000;-64
2023/03/16 02:12:57;;;;;;;;;4.50;4.50;;;;;;;;117467;1183;24975;-65
2023/03/16 02:15:26;;;;;;;;;7.50;6.50;;;;;;;;117443;1195;24988;-68
2023/03/16 02:17:56;;;;;;;;;9.00;8.00;;;;;;;;117396;1195;25144;-64
2023/03/16 02:20:36;;;;;;;;;8.33;6.00;;;;;;;;117418;1191;25051;-64
2023/03/16 02:23:06;;;;;;;;;5.00;5.00;;;;;;;;117441;1195;25396;-64
2023/03/16 02:26:04;;;;;;;;;9.00;6.50;;;;;;;;117448;1184;25025;-65
2023/03/16 02:29:10;;;;;;;;;8.00;7.67;;;;;;;;117405;1182;25168;-65
2023/03/16 02:31:39;;;;;;;;;8.00;7.00;;;;;;;;117441;1191;25555;-62
2023/03/16 02:34:08;;;;;;;;;8.00;6.00;;;;;;;;117513;1182;25303;-63
2023/03/16 02:36:38;;;;;;;;;9.00;8.00;;;;;;;;117397;1195;24749;-62
2023/03/16 02:39:06;;;;;;;;;5.00;5.00;;;;;;;;117358;1184;25576;-63
2023/03/16 02:41:35;;;;;;;;;8.00;7.00;;;;;;;;117413;1184;25184;-63
2023/03/16 02:44:17;;;;;;;;;8.00;8.00;;;;;;;;117382;1182;25725;-62
2023/03/16 02:46:45;;;;;;;;;7.00;5.00;;;;;;;;117422;1194;25595;-63
2023/03/16 02:49:32;;;;;;;;;7.00;7.00;;;;;;;;117383;1184;25712;-61
2023/03/16 02:52:00;;;;;;;;;7.00;7.00;;;;;;;;117410;1183;25268;-61
2023/03/16 02:54:28;;;;;;;;;6.00;5.00;;;;;;;;117449;1182;24762;-61
2023/03/16 02:56:57;;;;;;;;;7.00;7.00;;;;;;;;117461;1186;26428;-61
2023/03/16 02:59:25;;;;;;;;;6.00;6.00;;;;;;;;117109;1183;24796;-61
2023/03/16 03:01:53;;;;;;;;;8.00;7.00;;;;;;;;117406;1183;25572;-62
2023/03/16 03:04:23;;;;;;;;;8.67;8.67;;;;;;;;117431;1183;25065;-61
2023/03/16 03:06:51;;;;;;;;;7.33;7.33;;;;;;;;117445;1195;26053;-61
2023/03/16 03:09:20;;;;;;;;;7.50;6.00;;;;;;;;117391;1186;24746;-61
2023/03/16 03:11:49;;;;;;;;;5.00;5.00;;;;;;;;117412;1195;25352;-61
2023/03/16 03:14:17;;;;;;;;;9.00;7.00;;;;;;;;117448;1195;24798;-61
2023/03/16 03:16:46;;;;;;;;;7.00;7.00;;;;;;;;117406;1195;25824;-61
2023/03/16 03:19:14;;;;;;;;;9.00;9.00;;;;;;;;117355;1183;25156;-61
2023/03/16 03:21:43;;;;;;;;;6.00;6.00;;;;;;;;117391;1183;24784;-61
2023/03/16 03:24:12;;;;;;;;;8.00;8.00;;;;;;;;117431;1184;25082;-61
2023/03/16 03:26:40;;;;;;;;;6.50;6.50;;;;;;;;117413;1184;24863;-62
2023/03/16 03:29:09;;;;;;;;;8.00;7.00;;;;;;;;117421;1195;24767;-61
2023/03/16 03:31:37;;;;;;;;;7.00;5.00;;;;;;;;117415;1195;25630;-62
2023/03/16 03:34:06;;;;;;;;;6.00;6.00;;;;;;;;117373;1184;24998;-61
2023/03/16 03:36:34;;;;;;;;;7.00;6.00;;;;;;;;117406;1182;24756;-61
2023/03/16 03:39:03;;;;;;;;;9.00;8.00;;;;;;;;117431;1182;24801;-62
2023/03/16 03:41:32;;;;;;;;;6.00;4.00;;;;;;;;117411;1195;25277;-61
2023/03/16 03:44:00;;;;;;;;;8.67;6.67;;;;;;;;117444;1182;25280;-61
2023/03/16 03:46:29;;;;;;;;;8.00;7.00;;;;;;;;117425;1187;24793;-62
2023/03/16 03:49:02;;;;;;;;;9.00;6.00;;;;;;;;117381;1195;25346;-63
2023/03/16 03:51:32;;;;;;;;;7.00;6.00;;;;;;;;117413;1195;25560;-64
2023/03/16 03:54:00;;;;;;;;;4.00;4.00;;;;;;;;117463;1182;25635;-70
2023/03/16 03:56:28;;;;;;;;;9.00;7.00;;;;;;;;117372;1195;24741;-65
2023/03/16 03:58:57;;;;;;;;;5.00;5.00;;;;;;;;117367;1184;25197;-60
2023/03/16 04:01:25;;;;;;;;;9.00;6.50;;;;;;;;117390;1184;25026;-61
2023/03/16 04:03:53;;;;;;;;;6.00;6.00;;;;;;;;117309;1195;25243;-61
2023/03/16 04:06:22;;;;;;;;;6.50;4.50;;;;;;;;117407;1182;24755;-61
2023/03/16 04:08:53;;;;;;;;;5.00;5.00;;;;;;;;117415;1182;25540;-61
2023/03/16 04:11:21;;;;;;;;;8.33;6.67;;;;;;;;117437;1183;25484;-61
2023/03/16 04:13:52;;;;;;;;;5.00;5.00;;;;;;;;117419;1185;25081;-61
2023/03/16 04:16:20;;;;;;;;;6.50;5.50;;;;;;;;117437;1187;25823;-61
2023/03/16 04:18:49;;;;;;;;;7.00;6.00;;;;;;;;117294;1184;24737;-61
2023/03/16 04:21:17;;;;;;;;;6.00;5.00;;;;;;;;117424;1193;25270;-61
2023/03/16 04:23:47;;;;;;;;;6.25;6.25;;;;;;;;117256;1186;25684;-61
2023/03/16 04:26:15;;;;;;;;;5.50;5.00;;;;;;;;117365;1183;24918;-62
2023/03/16 04:28:43;;;;;;;;;9.00;5.00;;;;;;;;117460;1184;25136;-62
2023/03/16 04:31:12;;;;;;;;;6.50;5.00;;;;;;;;117400;1182;25670;-62
2023/03/16 04:33:41;;;;;;;;;6.00;2.00;;;;;;;;117452;1183;25037;-62
2023/03/16 04:36:10;;;;;;;;;6.00;5.25;;;;;;;;117435;1183;24962;-62
2023/03/16 04:38:39;;;;;;;;;4.00;4.00;;;;;;;;117428;1186;24987;-62
2023/03/16 04:41:10;;;;;;;;;8.00;5.00;;;;;;;;117416;1183;25675;-62
2023/03/16 04:43:38;;;;;;;;;5.00;5.00;;;;;;;;117390;1182;25420;-62
2023/03/16 04:46:06;;;;;;;;;6.00;4.00;;;;;;;;117394;1184;24793;-62
2023/03/16 04:48:36;;;;;;;;;5.00;5.00;;;;;;;;117451;1184;24992;-61
2023/03/16 04:51:04;;;;;;;;;4.50;4.50;;;;;;;;117463;1182;25307;-61
2023/03/16 04:53:33;;;;;;;;;6.00;6.00;;;;;;;;117403;1183;25411;-61
2023/03/16 04:56:02;;;;;;;;;4.50;4.50;;;;;;;;117408;1183;25338;-61
2023/03/16 04:58:31;;;;;;;;;5.00;5.00;;;;;;;;117397;1190;25651;-62
2023/03/16 05:00:59;;;;;;;;;5.00;5.00;;;;;;;;117428;1190;25040;-61
2023/03/16 05:03:28;;;;;;;;;6.50;6.00;;;;;;;;117329;1184;25547;-62
2023/03/16 05:05:56;;;;;;;;;4.00;4.00;;;;;;;;117398;1182;25344;-61
2023/03/16 05:08:24;;;;;;;;;7.00;5.00;;;;;;;;117367;1183;25258;-61
2023/03/16 05:10:57;;;;;;;;;6.50;5.00;;;;;;;;117433;1183;25240;-61
2023/03/16 05:13:26;;;;;;;;;5.00;5.00;;;;;;;;117449;1183;25039;-62
2023/03/16 05:15:54;;;;;;;;;3.00;3.00;;;;;;;;117435;1186;25216;-63
2023/03/16 05:18:23;;;;;;;;;4.00;4.00;;;;;;;;117479;1183;25631;-62
2023/03/16 05:20:54;;;;;;;;;3.67;3.00;;;;;;;;117443;1190;25456;-62
2023/03/16 05:23:23;;;;;;;;;5.00;3.50;;;;;;;;117422;1194;25537;-62
2023/03/16 05:25:51;;;;;;;;;5.00;5.00;;;;;;;;117394;1186;24910;-62
2023/03/16 05:28:19;;;;;;;;;4.50;4.50;;;;;;;;117421;1195;25020;-62
2023/03/16 05:30:48;;;;;;;;;7.00;6.00;;;;;;;;117400;1193;25175;-62
2023/03/16 05:33:16;;;;;;;;;5.00;5.00;;;;;;;;117447;1183;25179;-66
2023/03/16 05:35:45;;;;;;;;;7.00;7.00;;;;;;;;117371;1190;25670;-62
2023/03/16 05:38:14;;;;;;;;;7.50;6.00;;;;;;;;117422;1183;25314;-62
2023/03/16 05:40:42;;;;;;;;;7.75;7.00;;;;;;;;119438;1194;25289;-62
2023/03/16 05:43:11;;;;;;;;;7.67;5.67;;;;;;;;117946;1183;25334;-62
2023/03/16 05:45:39;;;;;;;;;5.00;5.00;;;;;;;;117317;1184;24989;-62
2023/03/16 05:48:07;;;;;;;;;9.00;7.00;;;;;;;;118463;1194;25130;-62
2023/03/16 05:50:36;;;;;;;;;6.00;6.00;;;;;;;;117437;1183;24738;-62
2023/03/16 05:53:04;;;;;;;;;7.00;6.50;;;;;;;;117393;1195;25210;-62
2023/03/16 05:55:33;;;;;;;;;8.00;6.00;;;;;;;;117411;1182;25235;-62
2023/03/16 05:58:02;;;;;;;;;9.00;6.00;;;;;;;;117440;1182;24775;-62
2023/03/16 06:00:32;;;;;;;;;7.00;3.50;;;;;;;;117421;1182;25674;-62
2023/03/16 06:03:01;;;;;;;;;6.00;6.00;;;;;;;;117398;1182;24997;-62
2023/03/16 06:05:30;;;;;;;;;8.50;5.00;;;;;;;;117418;1184;24968;-62
2023/03/16 06:08:00;;;;;;;;;4.50;4.50;;;;;;;;117389;1183;24929;-62
2023/03/16 06:10:28;;;;;;;;;6.50;5.00;;;;;;;;117416;1187;25229;-62
2023/03/16 06:12:57;;;;;;;;;7.33;5.00;;;;;;;;117423;1184;25601;-62
2023/03/16 06:15:29;;;;;;;;;4.00;4.00;;;;;;;;117401;1191;25336;-62
2023/03/16 06:17:57;;;;;;;;;3.67;3.67;;;;;;;;117424;1185;25375;-62
2023/03/16 06:20:26;;;;;;;;;5.00;5.00;;;;;;;;117422;1182;25591;-62
2023/03/16 06:22:55;;;;;;;;;5.50;5.50;;;;;;;;117396;1191;25430;-62
2023/03/16 06:25:23;;;;;;;;;5.00;4.00;;;;;;;;117386;1184;24954;-61
2023/03/16 06:27:52;;;;;;;;;6.50;5.50;;;;;;;;117442;1183;25012;-61
2023/03/16 06:30:20;;;;;;;;;5.00;4.00;;;;;;;;117430;1183;25274;-61
2023/03/16 06:32:49;;;;;;;;;6.50;5.50;;;;;;;;117437;1194;24869;-62
2023/03/16 06:35:18;;;;;;;;;5.00;5.00;;;;;;;;117424;1182;25261;-63
2023/03/16 06:37:46;;;;;;;;;7.00;5.00;;;;;;;;117437;1185;25447;-63
2023/03/16 06:40:15;;;;;;;;;3.67;3.67;;;;;;;;117385;1184;25687;-62
2023/03/16 06:42:43;;;;;;;;;4.67;4.00;;;;;;;;117421;1184;24780;-62
2023/03/16 06:45:16;;;;;;;;;7.00;5.00;;;;;;;;117442;1194;25640;-62
2023/03/16 06:47:44;;;;;;;;;6.00;6.00;;;;;;;;117420;1195;25212;-64
2023/03/16 06:50:13;;;;;;;;;4.00;4.00;;;;;;;;117410;1187;25255;-66
2023/03/16 06:52:41;;;;;;;;;8.00;6.00;;;;;;;;117430;1186;25687;-69
2023/03/16 06:55:11;;;;;;;;;5.00;4.00;;;;;;;;117438;1184;25182;-63
2023/03/16 06:57:40;;;;;;;;;4.50;4.00;;;;;;;;117388;1183;24764;-62
2023/03/16 07:00:12;;;;;;;;;7.00;5.00;;;;;;;;117478;1183;24919;-62
2023/03/16 07:02:42;;;;;;;;;6.50;5.00;;;;;;;;117438;1183;25614;-62
2023/03/16 07:05:28;;;;;;;;;7.33;6.67;;;;;;;;117390;1194;24766;-62
2023/03/16 07:08:14;;;;;;;;;7.00;4.00;;;;;;;;117398;1184;25170;-66
2023/03/16 07:10:42;;;;;;;;;3.00;3.00;;;;;;;;117438;1184;25446;-64
2023/03/16 07:13:28;;;;;;;;;6.50;6.50;;;;;;;;117445;1194;25591;-62
2023/03/16 07:15:57;;;;;;;;;7.00;5.00;;;;;;;;117393;1192;25412;-62
2023/03/16 07:18:43;;;;;;;;;4.50;3.50;;;;;;;;117427;1184;24990;-62
2023/03/16 07:21:30;;;;;;;;;7.00;5.00;;;;;;;;117451;1195;26012;-69
2023/03/16 07:24:00;;;;;;;;;3.00;2.00;;;;;;;;117443;1187;25393;-67
2023/03/16 07:26:46;;;;;;;;;5.00;5.00;;;;;;;;117367;1194;25749;-62
2023/03/16 07:29:33;;;;;;;;;6.00;4.00;;;;;;;;117373;1184;25459;-61
2023/03/16 07:32:18;;;;;;;;;4.75;4.75;;;;;;;;117435;1183;25048;-62
2023/03/16 07:34:47;;;;;;;;;7.00;6.50;;;;;;;;117422;1182;24698;-61
2023/03/16 07:37:33;;;;;;;;;4.00;3.00;;;;;;;;117370;1181;24995;-62
2023/03/16 07:40:20;;;;;;;;;3.00;3.00;;;;;;;;117425;1184;25006;-62
2023/03/16 07:42:48;;;;;;;;;6.00;4.00;;;;;;;;117417;1194;24995;-61
2023/03/16 07:45:17;;;;;;;;;4.00;4.00;;;;;;;;117392;1184;24924;-61
2023/03/16 07:48:03;;;;;;;;;2.00;2.00;;;;;;;;117402;1182;25282;-63
2023/03/16 07:50:32;;;;;;;;;4.00;4.00;;;;;;;;117397;1194;24973;-62
2023/03/16 07:53:00;;;;;;;;;3.00;3.00;;;;;;;;117390;1181;25202;-62
2023/03/16 07:55:29;;;;;;;;;4.33;4.00;;;;;;;;117354;1182;25025;-62
2023/03/16 07:57:58;;;;;;;;;6.00;4.00;;;;;;;;117373;1195;25414;-62
2023/03/16 08:00:26;;;;;;;;;3.00;3.00;;;;;;;;117434;1183;24734;-62
2023/03/16 08:02:56;;;;;;;;;6.00;4.00;;;;;;;;117500;1182;25601;-61
2023/03/16 08:05:25;;;;;;;;;5.00;5.00;;;;;;;;117445;1194;25524;-62
2023/03/16 08:07:57;;;;;;;;;2.00;2.00;;;;;;;;117427;1182;25007;-61
2023/03/16 08:10:26;;;;;;;;;5.00;3.00;;;;;;;;117425;1183;25367;-62
2023/03/16 08:12:55;;;;;;;;;3.00;3.00;;;;;;;;117439;1183;25151;-61
2023/03/16 08:15:24;;;;;;;;;3.00;3.00;;;;;;;;117418;1183;25159;-62
2023/03/16 08:17:52;;;;;;;;;3.00;3.00;;;;;;;;117395;1182;25315;-61
2023/03/16 08:20:21;;;;;;;;;5.00;4.00;;;;;;;;117456;1182;25291;-61
2023/03/16 08:22:50;;;;;;;;;4.00;3.00;;;;;;;;117437;1188;25650;-61
2023/03/16 08:25:18;;;;;;;;;5.00;4.00;;;;;;;;117430;1181;25328;-62
2023/03/16 08:27:47;;;;;;;;;4.00;4.00;;;;;;;;117424;1182;24725;-61
2023/03/16 08:30:16;;;;;;;;;3.50;3.50;;;;;;;;117448;1182;25134;-62
2023/03/16 08:32:45;;;;;;;;;3.67;3.33;;;;;;;;117403;1194;25761;-62
2023/03/16 08:35:15;;;;;;;;;3.33;3.00;;;;;;;;117425;1184;25367;-61
2023/03/16 08:37:45;;;;;;;;;5.00;4.50;;;;;;;;117483;1184;25828;-61
2023/03/16 08:40:15;;;;;;;;;6.00;4.00;;;;;;;;117495;1183;25393;-61
2023/03/16 08:42:44;;;;;;;;;5.00;5.00;;;;;;;;117492;1183;24963;-61
2023/03/16 08:45:13;;;;;;;;;4.75;3.00;;;;;;;;117452;1195;24707;-61
2023/03/16 08:47:42;;;;;;;;;3.00;3.00;;;;;;;;117354;1195;25026;-61
2023/03/16 08:50:12;;;;;;;;;3.00;3.00;;;;;;;;117422;1183;24955;-62
2023/03/16 08:52:41;;;;;;;;;4.00;4.00;;;;;;;;117397;1189;24883;-62
2023/03/16 09:02:46;;;;;;;;;3.00;3.00;;;;;;;;116286;1199;24069;-62
2023/03/16 09:05:17;;;;;;;;;3.50;3.50;;;;;;;;117406;1183;24894;-62
2023/03/16 09:07:46;;;;;;;;;4.00;3.50;;;;;;;;117410;1184;25676;-61
2023/03/16 09:10:17;;;;;;;;;3.00;2.00;;;;;;;;117424;1195;24885;-62
2023/03/16 09:12:46;;;;;;;;;4.00;4.00;;;;;;;;117416;1183;24944;-61
2023/03/16 09:15:15;;;;;;;;;2.00;2.00;;;;;;;;117404;1182;25664;-61
2023/03/16 09:17:44;;;;;;;;;5.00;3.75;;;;;;;;117424;1183;25060;-61
2023/03/16 09:20:16;;;;;;;;;3.00;3.00;;;;;;;;117465;1195;24727;-62
2023/03/16 09:22:57;;;;;;;;;1.50;1.50;;;;;;;;117333;1189;25277;-62
2023/03/16 09:25:26;;;;;;;;;5.00;3.75;;;;;;;;117409;1195;25025;-61
2023/03/16 09:27:55;;;;;;;;;3.00;3.00;;;;;;;;117412;1183;24797;-62
2023/03/16 09:30:23;;;;;;;;;3.75;3.00;;;;;;;;117377;1183;25342;-62
2023/03/16 09:32:52;;;;;;;;;4.33;3.33;;;;;;;;117419;1195;25433;-62
2023/03/16 09:35:21;;;;;;;;;3.50;3.00;;;;;;;;117329;1184;25081;-62
2023/03/16 09:37:49;;;;;;;;;4.67;3.33;;;;;;;;117333;1184;25009;-62
2023/03/16 09:40:33;;;;;;;;;2.00;2.00;;;;;;;;117397;1183;24956;-62
2023/03/16 09:43:08;;;;;;;;;4.00;2.00;;;;;;;;117389;1184;25737;-62
2023/03/16 09:45:58;;;;;;;;;2.00;2.00;;;;;;;;117401;1183;25310;-62
2023/03/16 09:48:29;;;;;;;;;3.00;3.00;;;;;;;;117416;1183;25160;-61
2023/03/16 09:50:59;;;;;;;;;3.00;3.00;;;;;;;;117405;1184;24912;-62
2023/03/16 09:53:36;;;;;;;;;4.00;4.00;;;;;;;;117328;1195;25244;-61
2023/03/16 09:56:33;;;;;;;;;3.50;3.50;;;;;;;;117433;1183;25401;-61
2023/03/16 09:59:09;;;;;;;;;3.75;3.75;;;;;;;;117465;1184;25225;-62
2023/03/16 10:02:04;;;;;;;;;2.67;1.00;;;;;;;;117361;1189;25427;-62
2023/03/16 10:04:40;;;;;;;;;4.00;3.00;;;;;;;;117906;1180;24725;-63
2023/03/16 10:07:40;;;;;;;;;3.00;3.00;;;;;;;;117836;1179;25325;-62
2023/03/16 10:10:08;;;;;;;;;4.00;3.50;;;;;;;;117829;1192;25214;-63
2023/03/16 10:12:41;;;;;;;;;2.00;2.00;;;;;;;;117928;1180;25699;-62
2023/03/16 10:15:13;;;;;;;;;3.67;2.33;;;;;;;;117937;1180;25167;-61
2023/03/16 10:18:01;;;;;;;;;3.00;3.00;;;;;;;;117909;1188;25167;-62
2023/03/16 10:20:32;;;;;;;;;3.50;2.75;;;;;;;;117918;1181;24770;-63
2023/03/16 10:23:14;;;;;;;;;3.67;3.00;;;;;;;;117913;1180;24851;-62
2023/03/16 10:33:42;;;;;;;;;3.33;3.33;;;;;;;;117896;1183;26015;-62
2023/03/16 10:36:24;;;;;;;;;6.00;3.00;;;;;;;;117953;1181;25008;-62
2023/03/16 10:38:58;;;;;;;;;3.00;3.00;;;;;;;;117792;1192;25703;-62
2023/03/16 10:41:33;;;;;;;;;4.00;3.00;;;;;;;;117777;1179;25458;-62
2023/03/16 10:44:08;;;;;;;;;3.00;3.00;;;;;;;;117825;1184;25022;-62
2023/03/16 10:46:41;;;;;;;;;2.25;2.00;;;;;;;;117837;1179;25319;-63
2023/03/16 10:49:19;;;;;;;;;4.00;4.00;;;;;;;;117856;1187;25053;-69
2023/03/16 10:51:48;;;;;;;;;2.67;2.00;;;;;;;;117888;1189;25554;-66
2023/03/16 10:54:28;;;;;;;;;1.00;1.00;;;;;;;;117896;1184;24889;-65
2023/03/16 10:56:58;;;;;;;;;4.00;4.00;;;;;;;;117916;1191;24867;-61
2023/03/16 10:59:32;;;;;;;;;3.25;2.75;;;;;;;;117834;1180;24816;-61
2023/03/16 11:02:02;;;;;;;;;3.50;3.50;;;;;;;;117844;1191;25199;-62
2023/03/16 11:04:32;;;;;;;;;2.00;2.00;;;;;;;;117844;1181;25402;-62
2023/03/16 11:07:00;;;;;;;;;5.00;3.67;;;;;;;;117810;1192;25473;-62
2023/03/16 11:09:33;;;;;;;;;1.25;1.25;;;;;;;;117780;1192;25319;-62
2023/03/16 11:12:24;;;;;;;;;3.00;3.00;;;;;;;;117772;1180;24750;-63
2023/03/16 11:14:53;;;;;;;;;5.00;4.00;;;;;;;;117916;1191;25017;-63
2023/03/16 11:17:34;;;;;;;;;2.00;2.00;;;;;;;;117920;1181;24696;-62
2023/03/16 11:20:11;;;;;;;;;4.00;3.67;;;;;;;;117826;1180;25326;-63
2023/03/16 11:22:44;;;;;;;;;4.33;3.67;;;;;;;;117866;1191;25269;-62
2023/03/16 11:25:44;;;;;;;;;4.00;2.33;;;;;;;;117942;1180;25190;-62
2023/03/16 11:28:24;;;;;;;;;2.50;2.00;;;;;;;;117788;1180;25559;-61
2023/03/16 11:31:05;;;;;;;;;4.00;3.50;;;;;;;;117811;1191;25511;-62
2023/03/16 11:33:33;;;;;;;;;4.33;2.33;;;;;;;;117906;1181;25637;-62
2023/03/16 11:36:30;;;;;;;;;3.50;2.25;;;;;;;;117779;1179;25085;-62
2023/03/16 11:39:21;;;;;;;;;3.50;2.00;;;;;;;;117826;1180;25653;-61
2023/03/16 11:42:08;;;;;;;;;3.00;2.33;;;;;;;;117908;1181;24735;-62
2023/03/16 11:44:42;;;;;;;;;3.00;2.25;;;;;;;;117936;1179;25462;-62
2023/03/16 11:47:58;;;;;;;;;5.00;4.50;;;;;;;;117818;1180;25380;-63
2023/03/16 11:50:45;;;;;;;;;5.00;3.75;;;;;;;;117854;1180;25458;-63
2023/03/16 11:53:31;;;;;;;;;4.00;3.00;;;;;;;;117903;1191;24725;-63
2023/03/16 11:56:11;;;;;;;;;3.50;3.50;;;;;;;;117865;1178;24966;-63
2023/03/16 11:58:52;;;;;;;;;3.00;3.00;;;;;;;;117885;1190;25277;-63
2023/03/16 12:01:20;;;;;;;;;3.00;3.00;;;;;;;;117927;1183;25446;-63
2023/03/16 12:04:04;;;;;;;;;3.67;3.00;;;;;;;;117906;1180;25606;-63
2023/03/16 12:06:59;;;;;;;;;4.25;3.50;;;;;;;;117892;1191;25515;-63
2023/03/16 12:09:56;;;;;;;;;2.00;2.00;;;;;;;;117858;1180;25121;-63
2023/03/16 12:12:31;;;;;;;;;2.00;2.00;;;;;;;;117928;1179;25243;-62
2023/03/16 12:15:13;;;;;;;;;3.00;3.00;;;;;;;;117934;1179;25304;-62
2023/03/16 12:17:43;;;;;;;;;2.00;2.00;;;;;;;;117936;1179;25816;-62
2023/03/16 12:20:30;;;;;;;;;3.00;3.00;;;;;;;;117926;1181;25445;-62
2023/03/16 12:23:05;;;;;;;;;3.00;3.00;;;;;;;;117900;1181;25152;-63
2023/03/16 12:25:38;;;;;;;;;3.00;3.00;;;;;;;;117918;1191;25196;-62
2023/03/16 12:28:15;;;;;;;;;2.50;2.00;;;;;;;;117971;1187;24785;-62
2023/03/16 12:30:59;;;;;;;;;3.00;2.50;;;;;;;;117876;1179;24993;-63
2023/03/16 12:34:05;;;;;;;;;3.00;1.00;;;;;;;;117855;1180;25139;-62
2023/03/16 12:37:09;;;;;;;;;2.00;2.00;;;;;;;;117946;1179;25654;-63
2023/03/16 12:39:50;;;;;;;;;3.00;2.50;;;;;;;;117932;1183;24850;-62
2023/03/16 12:42:44;;;;;;;;;2.00;2.00;;;;;;;;117920;1191;25460;-62
2023/03/16 12:45:35;;;;;;;;;1.25;1.25;;;;;;;;117694;1181;24801;-62
2023/03/16 12:48:27;;;;;;;;;1.75;1.75;;;;;;;;117908;1180;25454;-62
2023/03/16 12:50:59;;;;;;;;;2.25;2.25;;;;;;;;117835;1180;25948;-62
2023/03/16 12:53:39;;;;;;;;;2.75;2.00;;;;;;;;117854;1180;25594;-62
2023/03/16 12:56:20;;;;;;;;;2.00;2.00;;;;;;;;117867;1180;25019;-63
2023/03/16 12:58:49;;;;;;;;;2.33;2.00;;;;;;;;117875;1191;25223;-63
2023/03/16 13:01:19;;;;;;;;;3.00;3.00;;;;;;;;117835;1191;24834;-63
2023/03/16 13:03:49;;;;;;;;;3.25;3.25;;;;;;;;117868;1188;26184;-63
2023/03/16 13:06:22;;;;;;;;;2.50;2.50;;;;;;;;117868;1191;25267;-63
2023/03/16 13:08:56;;;;;;;;;4.00;3.50;;;;;;;;117882;1191;25647;-63
2023/03/16 13:11:26;;;;;;;;;1.75;1.75;;;;;;;;117856;1179;25318;-64
2023/03/16 13:14:00;;;;;;;;;3.00;3.00;;;;;;;;117921;1181;25055;-62
2023/03/16 13:16:37;;;;;;;;;3.33;3.00;;;;;;;;117870;1191;25411;-63
2023/03/16 13:19:26;;;;;;;;;3.00;3.00;;;;;;;;117837;1179;25263;-63
2023/03/16 13:22:05;;;;;;;;;2.67;2.00;;;;;;;;117916;1191;25395;-63
2023/03/16 13:24:38;;;;;;;;;1.00;1.00;;;;;;;;117868;1180;25522;-65
2023/03/16 13:27:33;;;;;;;;;3.00;3.00;;;;;;;;117827;1191;25629;-63
2023/03/16 13:30:16;;;;;;;;;4.50;2.75;;;;;;;;117870;1178;25619;-63
2023/03/16 13:32:46;;;;;;;;;2.00;2.00;;;;;;;;117907;1181;25268;-63
2023/03/16 13:35:16;;;;;;;;;1.33;1.33;;;;;;;;117877;1179;24964;-62
2023/03/16 13:37:46;;;;;;;;;2.00;2.00;;;;;;;;117853;1179;25256;-61
2023/03/16 13:40:21;;;;;;;;;3.00;3.00;;;;;;;;117840;1181;25150;-63
2023/03/16 13:42:51;;;;;;;;;3.00;2.00;;;;;;;;117926;1179;25094;-62
2023/03/16 13:45:28;;;;;;;;;3.25;1.25;;;;;;;;117945;1183;25435;-63
2023/03/16 13:47:59;;;;;;;;;2.00;1.00;;;;;;;;117928;1187;25209;-62
2023/03/16 13:50:31;;;;;;;;;1.00;1.00;;;;;;;;117941;1180;25326;-62
2023/03/16 13:53:04;;;;;;;;;3.00;1.00;;;;;;;;118129;1189;24908;-62
2023/03/16 13:55:35;;;;;;;;;3.50;2.50;;;;;;;;118093;1176;25299;-62
2023/03/16 13:58:04;;;;;;;;;2.00;2.00;;;;;;;;118180;1177;25572;-62
2023/03/16 14:00:37;;;;;;;;;5.75;2.75;;;;;;;;118131;1177;24997;-62
2023/03/16 14:03:17;;;;;;;;;2.00;2.00;;;;;;;;118150;1176;25663;-63
2023/03/16 14:05:46;;;;;;;;;1.00;1.00;;;;;;;;117894;1179;25033;-64
2023/03/16 14:08:22;;;;;;;;;2.33;1.33;;;;;;;;117974;1181;24759;-61
2023/03/16 14:10:53;;;;;;;;;3.00;2.33;;;;;;;;118154;1189;25369;-64
2023/03/16 14:13:26;;;;;;;;;4.00;2.00;;;;;;;;118149;1177;25021;-63
2023/03/16 14:15:57;;;;;;;;;3.00;3.00;;;;;;;;117871;1189;25458;-63
2023/03/16 14:18:39;;;;;;;;;3.00;3.00;;;;;;;;117939;1177;24963;-70
2023/03/16 14:21:21;;;;;;;;;5.00;3.00;;;;;;;;118142;1177;25493;-65
2023/03/16 14:23:53;;;;;;;;;1.67;1.00;;;;;;;;117946;1179;25104;-62
2023/03/16 14:26:22;;;;;;;;;1.00;1.00;;;;;;;;117906;1186;25077;-63
2023/03/16 14:29:13;;;;;;;;;1.75;1.25;;;;;;;;118089;1189;25124;-63
2023/03/16 14:31:42;;;;;;;;;4.25;3.00;;;;;;;;118081;1177;24794;-62
2023/03/16 14:34:27;;;;;;;;;2.00;2.00;;;;;;;;117915;1177;25254;-63
2023/03/16 14:37:10;;;;;;;;;2.00;2.00;;;;;;;;118127;1176;25395;-62
2023/03/16 14:39:41;;;;;;;;;2.00;2.00;;;;;;;;118124;1189;25597;-63
2023/03/16 14:42:29;;;;;;;;;2.25;2.00;;;;;;;;118101;1176;25230;-63
2023/03/16 14:44:59;;;;;;;;;5.00;2.00;;;;;;;;118103;1186;25328;-64
2023/03/16 14:47:30;;;;;;;;;2.00;1.67;;;;;;;;118112;1178;25518;-64
2023/03/16 14:50:06;;;;;;;;;1.25;1.25;;;;;;;;117914;1177;25284;-63
2023/03/16 14:52:36;;;;;;;;;3.25;2.75;;;;;;;;117913;1179;25116;-63
2023/03/16 14:55:18;;;;;;;;;2.00;2.00;;;;;;;;118126;1189;25873;-63
2023/03/16 14:57:48;;;;;;;;;2.50;2.50;;;;;;;;117933;1189;25256;-63
2023/03/16 15:00:18;;;;;;;;;2.00;2.00;;;;;;;;118124;1189;24911;-62
2023/03/16 15:03:06;;;;;;;;;2.00;2.00;;;;;;;;118155;1177;24851;-62
2023/03/16 15:05:37;;;;;;;;;1.25;1.25;;;;;;;;118126;1177;25474;-62
2023/03/16 15:08:13;;;;;;;;;3.00;2.50;;;;;;;;118123;1180;24900;-62
2023/03/16 15:10:43;;;;;;;;;2.67;1.00;;;;;;;;117917;1180;25682;-62
2023/03/16 15:13:16;;;;;;;;;2.00;2.00;;;;;;;;118135;1177;24698;-62
2023/03/16 15:15:47;;;;;;;;;1.00;1.00;;;;;;;;117889;1179;24947;-63
2023/03/16 15:18:16;;;;;;;;;1.50;1.50;;;;;;;;118123;1178;24720;-63
2023/03/16 15:20:44;;;;;;;;;2.00;2.00;;;;;;;;118148;1189;25674;-62